sensor_id;sensor_type;location;lat;lon;timestamp;pressure;altitude;pressure_sealevel;temperature;humidity
69171;BME280;56279;47.902;12.308;2023-07-20T00:01:41;95237.91;;;17.94;97.08
69171;BME280;56279;47.902;12.308;2023-07-20T00:03:45;95242.91;;;17.96;97.15
69171;BME280;56279;47.902;12.308;2023-07-20T00:05:49;95244.13;;;17.99;97.39
69171;BME280;56279;47.902;12.308;2023-07-20T00:07:51;95233.91;;;18.01;97.23
69171;BME280;56279;47.902;12.308;2023-07-20T00:09:53;95241.59;;;18.02;97.06
69171;BME280;56279;47.902;12.308;2023-07-20T00:11:55;95236.25;;;18.02;96.80
69171;BME280;56279;47.902;12.308;2023-07-20T00:13:57;95232.03;;;18.01;97.02
69171;BME280;56279;47.902;12.308;2023-07-20T00:15:58;95240.03;;;18.01;97.20
69171;BME280;56279;47.902;12.308;2023-07-20T00:17:59;95249.94;;;18.01;96.86
69171;BME280;56279;47.902;12.308;2023-07-20T00:20:00;95258.28;;;17.99;97.00
69171;BME280;56279;47.902;12.308;2023-07-20T00:22:02;95259.72;;;17.97;97.03
69171;BME280;56279;47.902;12.308;2023-07-20T00:24:05;95245.41;;;17.92;97.03
69171;BME280;56279;47.902;12.308;2023-07-20T00:26:06;95245.31;;;17.89;96.79
69171;BME280;56279;47.902;12.308;2023-07-20T00:28:08;95252.41;;;17.85;96.95
69171;BME280;56279;47.902;12.308;2023-07-20T00:30:09;95250.03;;;17.83;96.99
69171;BME280;56279;47.902;12.308;2023-07-20T00:32:11;95257.25;;;17.83;96.73
69171;BME280;56279;47.902;12.308;2023-07-20T00:34:12;95249.13;;;17.79;96.94
69171;BME280;56279;47.902;12.308;2023-07-20T00:36:15;95245.38;;;17.80;96.98
69171;BME280;56279;47.902;12.308;2023-07-20T00:38:17;95244.56;;;17.80;96.86
69171;BME280;56279;47.902;12.308;2023-07-20T00:40:18;95245.38;;;17.80;97.03
69171;BME280;56279;47.902;12.308;2023-07-20T00:42:20;95235.44;;;17.81;97.17
69171;BME280;56279;47.902;12.308;2023-07-20T00:44:21;95230.25;;;17.84;97.04
69171;BME280;56279;47.902;12.308;2023-07-20T00:46:23;95225.69;;;17.85;97.16
69171;BME280;56279;47.902;12.308;2023-07-20T00:48:29;95222.38;;;17.88;97.17
69171;BME280;56279;47.902;12.308;2023-07-20T00:50:31;95220.81;;;17.87;97.22
69171;BME280;56279;47.902;12.308;2023-07-20T00:52:33;95242.47;;;17.85;96.90
69171;BME280;56279;47.902;12.308;2023-07-20T00:54:35;95256.50;;;17.82;97.36
69171;BME280;56279;47.902;12.308;2023-07-20T00:56:37;95272.06;;;17.80;97.38
69171;BME280;56279;47.902;12.308;2023-07-20T00:58:40;95278.50;;;17.79;96.76
69171;BME280;56279;47.902;12.308;2023-07-20T01:00:41;95273.50;;;17.78;96.70
69171;BME280;56279;47.902;12.308;2023-07-20T01:02:42;95270.03;;;17.77;96.93
69171;BME280;56279;47.902;12.308;2023-07-20T01:04:44;95267.38;;;17.77;96.71
69171;BME280;56279;47.902;12.308;2023-07-20T01:06:58;95271.13;;;17.76;96.40
69171;BME280;56279;47.902;12.308;2023-07-20T01:09:09;95262.03;;;17.77;96.55
69171;BME280;56279;47.902;12.308;2023-07-20T01:11:43;95254.00;;;17.77;96.38
69171;BME280;56279;47.902;12.308;2023-07-20T01:13:48;95256.34;;;17.79;96.20
69171;BME280;56279;47.902;12.308;2023-07-20T01:15:57;95251.00;;;17.79;95.91
69171;BME280;56279;47.902;12.308;2023-07-20T01:17:59;95243.00;;;17.79;96.29
69171;BME280;56279;47.902;12.308;2023-07-20T01:20:03;95248.22;;;17.75;95.97
69171;BME280;56279;47.902;12.308;2023-07-20T01:26:58;95248.59;;;17.65;95.62
69171;BME280;56279;47.902;12.308;2023-07-20T01:31:25;95237.50;;;17.55;95.52
69171;BME280;56279;47.902;12.308;2023-07-20T01:33:28;95239.53;;;17.49;95.61
69171;BME280;56279;47.902;12.308;2023-07-20T01:35:32;95234.38;;;17.44;95.73
69171;BME280;56279;47.902;12.308;2023-07-20T01:37:35;95236.59;;;17.42;95.91
69171;BME280;56279;47.902;12.308;2023-07-20T01:39:38;95243.81;;;17.42;95.91
69171;BME280;56279;47.902;12.308;2023-07-20T01:41:40;95258.38;;;17.44;95.82
69171;BME280;56279;47.902;12.308;2023-07-20T01:43:42;95257.31;;;17.45;95.77
69171;BME280;56279;47.902;12.308;2023-07-20T01:45:44;95255.38;;;17.46;96.15
69171;BME280;56279;47.902;12.308;2023-07-20T01:47:48;95256.19;;;17.46;95.95
69171;BME280;56279;47.902;12.308;2023-07-20T01:49:49;95248.97;;;17.47;96.09
69171;BME280;56279;47.902;12.308;2023-07-20T01:51:50;95241.75;;;17.47;96.09
69171;BME280;56279;47.902;12.308;2023-07-20T01:53:52;95234.03;;;17.46;95.93
69171;BME280;56279;47.902;12.308;2023-07-20T01:55:53;95228.41;;;17.47;95.87
69171;BME280;56279;47.902;12.308;2023-07-20T01:57:57;95229.50;;;17.46;96.41
69171;BME280;56279;47.902;12.308;2023-07-20T02:00:01;95231.72;;;17.44;96.01
69171;BME280;56279;47.902;12.308;2023-07-20T02:02:04;95233.28;;;17.45;95.97
69171;BME280;56279;47.902;12.308;2023-07-20T02:04:05;95229.69;;;17.41;96.19
69171;BME280;56279;47.902;12.308;2023-07-20T02:06:07;95222.34;;;17.38;95.99
69171;BME280;56279;47.902;12.308;2023-07-20T02:08:09;95229.88;;;17.36;95.87
69171;BME280;56279;47.902;12.308;2023-07-20T02:10:10;95224.84;;;17.35;95.89
69171;BME280;56279;47.902;12.308;2023-07-20T02:12:12;95227.50;;;17.35;96.00
69171;BME280;56279;47.902;12.308;2023-07-20T02:14:14;95231.75;;;17.36;95.87
69171;BME280;56279;47.902;12.308;2023-07-20T02:16:16;95225.00;;;17.38;95.97
69171;BME280;56279;47.902;12.308;2023-07-20T02:18:17;95223.25;;;17.42;95.94
69171;BME280;56279;47.902;12.308;2023-07-20T02:20:19;95227.50;;;17.43;95.91
69171;BME280;56279;47.902;12.308;2023-07-20T02:22:21;95237.50;;;17.46;95.52
69171;BME280;56279;47.902;12.308;2023-07-20T02:24:22;95237.50;;;17.46;95.68
69171;BME280;56279;47.902;12.308;2023-07-20T02:26:23;95237.97;;;17.48;95.42
69171;BME280;56279;47.902;12.308;2023-07-20T02:31:09;95249.13;;;17.50;94.94
69171;BME280;56279;47.902;12.308;2023-07-20T02:33:11;95253.03;;;17.53;94.43
69171;BME280;56279;47.902;12.308;2023-07-20T02:35:13;95247.41;;;17.54;94.59
69171;BME280;56279;47.902;12.308;2023-07-20T02:37:16;95239.06;;;17.56;93.96
69171;BME280;56279;47.902;12.308;2023-07-20T02:39:17;95237.63;;;17.58;94.08
69171;BME280;56279;47.902;12.308;2023-07-20T02:41:19;95245.31;;;17.60;93.90
69171;BME280;56279;47.902;12.308;2023-07-20T02:43:20;95240.75;;;17.60;93.83
69171;BME280;56279;47.902;12.308;2023-07-20T02:45:21;95241.22;;;17.62;93.91
69171;BME280;56279;47.902;12.308;2023-07-20T02:47:23;95240.44;;;17.62;93.85
69171;BME280;56279;47.902;12.308;2023-07-20T02:49:24;95249.66;;;17.64;93.72
69171;BME280;56279;47.902;12.308;2023-07-20T02:51:26;95253.47;;;17.63;93.32
69171;BME280;56279;47.902;12.308;2023-07-20T02:53:27;95263.03;;;17.64;92.91
69171;BME280;56279;47.902;12.308;2023-07-20T02:55:29;95270.72;;;17.66;93.37
69171;BME280;56279;47.902;12.308;2023-07-20T02:57:30;95253.91;;;17.65;93.34
69171;BME280;56279;47.902;12.308;2023-07-20T02:59:31;95255.50;;;17.66;93.68
69171;BME280;56279;47.902;12.308;2023-07-20T03:01:33;95250.91;;;17.67;93.60
69171;BME280;56279;47.902;12.308;2023-07-20T03:03:34;95263.50;;;17.66;93.84
69171;BME280;56279;47.902;12.308;2023-07-20T03:05:42;95250.00;;;17.63;94.26
69171;BME280;56279;47.902;12.308;2023-07-20T03:07:43;95256.47;;;17.62;94.55
69171;BME280;56279;47.902;12.308;2023-07-20T03:09:45;95246.88;;;17.61;94.81
69171;BME280;56279;47.902;12.308;2023-07-20T03:11:47;95239.22;;;17.59;94.57
69171;BME280;56279;47.902;12.308;2023-07-20T03:13:48;95227.59;;;17.55;95.10
69171;BME280;56279;47.902;12.308;2023-07-20T03:15:52;95237.03;;;17.53;95.12
69171;BME280;56279;47.902;12.308;2023-07-20T03:17:53;95252.09;;;17.49;95.46
69171;BME280;56279;47.902;12.308;2023-07-20T03:19:55;95238.63;;;17.45;95.26
69171;BME280;56279;47.902;12.308;2023-07-20T03:21:57;95238.47;;;17.42;95.38
69171;BME280;56279;47.902;12.308;2023-07-20T03:23:58;95246.00;;;17.40;95.55
69171;BME280;56279;47.902;12.308;2023-07-20T03:26:02;95243.69;;;17.38;95.53
69171;BME280;56279;47.902;12.308;2023-07-20T03:28:04;95235.97;;;17.37;95.59
69171;BME280;56279;47.902;12.308;2023-07-20T03:30:06;95231.44;;;17.37;95.45
69171;BME280;56279;47.902;12.308;2023-07-20T03:32:09;95241.63;;;17.35;95.17
69171;BME280;56279;47.902;12.308;2023-07-20T03:34:10;95235.84;;;17.33;95.31
69171;BME280;56279;47.902;12.308;2023-07-20T03:36:12;95236.94;;;17.32;95.49
69171;BME280;56279;47.902;12.308;2023-07-20T03:38:13;95235.06;;;17.33;95.45
69171;BME280;56279;47.902;12.308;2023-07-20T03:40:15;95233.50;;;17.32;95.61
69171;BME280;56279;47.902;12.308;2023-07-20T03:42:17;95240.41;;;17.33;95.57
69171;BME280;56279;47.902;12.308;2023-07-20T03:44:18;95233.19;;;17.33;95.65
69171;BME280;56279;47.902;12.308;2023-07-20T03:46:20;95228.31;;;17.35;95.57
69171;BME280;56279;47.902;12.308;2023-07-20T03:48:23;95232.84;;;17.35;95.26
69171;BME280;56279;47.902;12.308;2023-07-20T03:50:24;95238.19;;;17.35;95.08
69171;BME280;56279;47.902;12.308;2023-07-20T03:52:26;95245.09;;;17.36;95.13
69171;BME280;56279;47.902;12.308;2023-07-20T03:54:27;95260.31;;;17.35;94.54
69171;BME280;56279;47.902;12.308;2023-07-20T03:56:28;95258.75;;;17.34;94.55
69171;BME280;56279;47.902;12.308;2023-07-20T03:58:31;95257.97;;;17.34;94.72
69171;BME280;56279;47.902;12.308;2023-07-20T04:00:32;95261.41;;;17.34;94.93
69171;BME280;56279;47.902;12.308;2023-07-20T04:02:36;95255.31;;;17.34;95.10
69171;BME280;56279;47.902;12.308;2023-07-20T04:04:38;95264.41;;;17.33;95.48
69171;BME280;56279;47.902;12.308;2023-07-20T04:06:39;95259.41;;;17.31;95.58
69171;BME280;56279;47.902;12.308;2023-07-20T04:08:40;95268.66;;;17.34;96.00
69171;BME280;56279;47.902;12.308;2023-07-20T04:10:45;95272.88;;;17.35;95.85
69171;BME280;56279;47.902;12.308;2023-07-20T04:12:46;95282.44;;;17.36;96.20
69171;BME280;56279;47.902;12.308;2023-07-20T04:14:48;95285.13;;;17.36;95.85
69171;BME280;56279;47.902;12.308;2023-07-20T04:16:49;95296.88;;;17.35;96.14
69171;BME280;56279;47.902;12.308;2023-07-20T04:18:55;95311.34;;;17.34;96.35
69171;BME280;56279;47.902;12.308;2023-07-20T04:20:57;95324.97;;;17.32;95.84
69171;BME280;56279;47.902;12.308;2023-07-20T04:22:59;95334.41;;;17.29;95.68
69171;BME280;56279;47.902;12.308;2023-07-20T04:25:00;95326.38;;;17.29;95.17
69171;BME280;56279;47.902;12.308;2023-07-20T04:27:01;95320.94;;;17.26;94.96
69171;BME280;56279;47.902;12.308;2023-07-20T04:29:04;95323.44;;;17.22;94.68
69171;BME280;56279;47.902;12.308;2023-07-20T04:31:12;95316.53;;;17.21;94.80
69171;BME280;56279;47.902;12.308;2023-07-20T04:33:13;95314.66;;;17.22;95.09
69171;BME280;56279;47.902;12.308;2023-07-20T04:35:44;95309.34;;;17.22;95.29
69171;BME280;56279;47.902;12.308;2023-07-20T04:37:40;95308.53;;;17.21;95.22
69171;BME280;56279;47.902;12.308;2023-07-20T04:39:48;95326.09;;;17.22;95.50
69171;BME280;56279;47.902;12.308;2023-07-20T04:41:49;95327.22;;;17.21;95.57
69171;BME280;56279;47.902;12.308;2023-07-20T04:43:52;95329.09;;;17.21;95.54
69171;BME280;56279;47.902;12.308;2023-07-20T04:46:05;95326.88;;;17.23;95.80
69171;BME280;56279;47.902;12.308;2023-07-20T04:48:10;95333.16;;;17.27;95.58
69171;BME280;56279;47.902;12.308;2023-07-20T04:50:13;95336.31;;;17.29;95.67
69171;BME280;56279;47.902;12.308;2023-07-20T04:52:15;95335.97;;;17.31;95.66
69171;BME280;56279;47.902;12.308;2023-07-20T04:54:16;95328.75;;;17.31;95.75
69171;BME280;56279;47.902;12.308;2023-07-20T04:56:18;95315.09;;;17.33;95.74
69171;BME280;56279;47.902;12.308;2023-07-20T04:58:22;95316.66;;;17.34;96.14
69171;BME280;56279;47.902;12.308;2023-07-20T05:00:23;95317.13;;;17.36;96.57
69171;BME280;56279;47.902;12.308;2023-07-20T05:02:25;95329.06;;;17.38;96.34
69171;BME280;56279;47.902;12.308;2023-07-20T05:04:27;95333.72;;;17.41;96.23
69171;BME280;56279;47.902;12.308;2023-07-20T05:06:28;95329.97;;;17.42;96.13
69171;BME280;56279;47.902;12.308;2023-07-20T05:08:30;95339.56;;;17.43;96.01
69171;BME280;56279;47.902;12.308;2023-07-20T05:10:32;95342.53;;;17.42;95.74
69171;BME280;56279;47.902;12.308;2023-07-20T05:12:36;95352.28;;;17.38;95.35
69171;BME280;56279;47.902;12.308;2023-07-20T05:14:38;95350.56;;;17.33;95.47
69171;BME280;56279;47.902;12.308;2023-07-20T05:16:39;95343.53;;;17.28;95.45
69171;BME280;56279;47.902;12.308;2023-07-20T05:18:42;95342.25;;;17.26;95.87
69171;BME280;56279;47.902;12.308;2023-07-20T05:20:46;95351.81;;;17.27;96.13
69171;BME280;56279;47.902;12.308;2023-07-20T05:22:48;95350.72;;;17.28;96.11
69171;BME280;56279;47.902;12.308;2023-07-20T05:24:49;95338.47;;;17.27;95.77
69171;BME280;56279;47.902;12.308;2023-07-20T05:26:50;95338.47;;;17.27;96.01
69171;BME280;56279;47.902;12.308;2023-07-20T05:28:52;95338.81;;;17.25;95.87
69171;BME280;56279;47.902;12.308;2023-07-20T05:30:53;95333.00;;;17.23;95.61
69171;BME280;56279;47.902;12.308;2023-07-20T05:32:55;95335.69;;;17.23;95.51
69171;BME280;56279;47.902;12.308;2023-07-20T05:34:56;95343.69;;;17.23;95.08
69171;BME280;56279;47.902;12.308;2023-07-20T05:36:57;95342.91;;;17.23;95.19
69171;BME280;56279;47.902;12.308;2023-07-20T05:39:01;95359.53;;;17.20;94.91
69171;BME280;56279;47.902;12.308;2023-07-20T05:41:03;95351.38;;;17.16;94.87
69171;BME280;56279;47.902;12.308;2023-07-20T05:43:04;95351.22;;;17.13;94.98
69171;BME280;56279;47.902;12.308;2023-07-20T05:45:06;95359.22;;;17.13;95.26
69171;BME280;56279;47.902;12.308;2023-07-20T05:47:08;95371.47;;;17.14;95.36
69171;BME280;56279;47.902;12.308;2023-07-20T05:49:09;95368.00;;;17.13;95.06
69171;BME280;56279;47.902;12.308;2023-07-20T05:51:11;95378.38;;;17.15;95.29
69171;BME280;56279;47.902;12.308;2023-07-20T05:53:12;95372.25;;;17.14;94.63
69171;BME280;56279;47.902;12.308;2023-07-20T05:55:13;95371.00;;;17.12;94.57
69171;BME280;56279;47.902;12.308;2023-07-20T05:57:15;95375.72;;;17.06;94.44
69171;BME280;56279;47.902;12.308;2023-07-20T05:59:16;95374.00;;;17.02;94.29
69171;BME280;56279;47.902;12.308;2023-07-20T06:01:17;95370.84;;;17.00;94.60
69171;BME280;56279;47.902;12.308;2023-07-20T06:03:20;95375.09;;;17.01;94.12
69171;BME280;56279;47.902;12.308;2023-07-20T06:05:23;95371.31;;;17.02;93.98
69171;BME280;56279;47.902;12.308;2023-07-20T06:07:25;95375.09;;;17.01;93.34
69171;BME280;56279;47.902;12.308;2023-07-20T06:09:26;95375.88;;;17.01;93.16
69171;BME280;56279;47.902;12.308;2023-07-20T06:11:28;95369.91;;;17.04;93.32
69171;BME280;56279;47.902;12.308;2023-07-20T06:13:29;95375.09;;;17.09;93.20
69171;BME280;56279;47.902;12.308;2023-07-20T06:15:34;95376.81;;;17.14;93.30
69171;BME280;56279;47.902;12.308;2023-07-20T06:17:39;95371.63;;;17.17;93.42
69171;BME280;56279;47.902;12.308;2023-07-20T06:19:41;95370.97;;;17.20;93.33
69171;BME280;56279;47.902;12.308;2023-07-20T06:21:42;95372.84;;;17.20;93.66
69171;BME280;56279;47.902;12.308;2023-07-20T06:23:44;95370.19;;;17.20;93.56
69171;BME280;56279;47.902;12.308;2023-07-20T06:25:45;95373.66;;;17.20;93.87
69171;BME280;56279;47.902;12.308;2023-07-20T06:27:49;95365.50;;;17.17;93.49
69171;BME280;56279;47.902;12.308;2023-07-20T06:29:51;95363.47;;;17.14;93.47
69171;BME280;56279;47.902;12.308;2023-07-20T06:31:54;95356.75;;;17.08;93.50
69171;BME280;56279;47.902;12.308;2023-07-20T06:33:55;95368.03;;;17.05;93.50
69171;BME280;56279;47.902;12.308;2023-07-20T06:35:58;95367.88;;;17.01;93.93
69171;BME280;56279;47.902;12.308;2023-07-20T06:37:59;95367.09;;;17.01;93.86
69171;BME280;56279;47.902;12.308;2023-07-20T06:40:04;95365.53;;;17.00;94.07
69171;BME280;56279;47.902;12.308;2023-07-20T06:42:06;95364.91;;;17.03;94.16
69171;BME280;56279;47.902;12.308;2023-07-20T06:44:07;95365.38;;;17.05;93.95
69171;BME280;56279;47.902;12.308;2023-07-20T06:46:09;95360.03;;;17.05;93.50
69171;BME280;56279;47.902;12.308;2023-07-20T06:48:10;95368.16;;;17.08;93.70
69171;BME280;56279;47.902;12.308;2023-07-20T06:50:11;95366.13;;;17.14;93.35
69171;BME280;56279;47.902;12.308;2023-07-20T06:52:12;95367.06;;;17.18;93.51
69171;BME280;56279;47.902;12.308;2023-07-20T06:54:14;95362.97;;;17.20;93.26
69171;BME280;56279;47.902;12.308;2023-07-20T06:56:15;95366.44;;;17.21;93.04
69171;BME280;56279;47.902;12.308;2023-07-20T06:58:16;95364.41;;;17.18;92.53
69171;BME280;56279;47.902;12.308;2023-07-20T07:00:19;95370.38;;;17.15;92.95
69171;BME280;56279;47.902;12.308;2023-07-20T07:02:20;95365.03;;;17.15;93.21
69171;BME280;56279;47.902;12.308;2023-07-20T07:04:21;95368.47;;;17.15;92.72
69171;BME280;56279;47.902;12.308;2023-07-20T07:06:23;95362.50;;;17.18;92.73
69171;BME280;56279;47.902;12.308;2023-07-20T07:08:24;95365.66;;;17.20;92.21
69171;BME280;56279;47.902;12.308;2023-07-20T07:10:25;95363.28;;;17.27;92.49
69171;BME280;56279;47.902;12.308;2023-07-20T07:12:26;95361.69;;;17.35;91.96
69171;BME280;56279;47.902;12.308;2023-07-20T07:14:28;95369.84;;;17.47;91.75
69171;BME280;56279;47.902;12.308;2023-07-20T07:16:29;95368.56;;;17.62;91.26
69171;BME280;56279;47.902;12.308;2023-07-20T07:18:30;95366.78;;;17.74;90.99
69171;BME280;56279;47.902;12.308;2023-07-20T07:20:31;95360.44;;;17.87;90.73
69171;BME280;56279;47.902;12.308;2023-07-20T07:22:33;95365.09;;;17.99;90.50
69171;BME280;56279;47.902;12.308;2023-07-20T07:24:34;95373.06;;;18.08;90.54
69171;BME280;56279;47.902;12.308;2023-07-20T07:26:36;95370.34;;;18.16;89.71
69171;BME280;56279;47.902;12.308;2023-07-20T07:28:38;95379.59;;;18.19;88.94
69171;BME280;56279;47.902;12.308;2023-07-20T07:30:40;95376.94;;;18.19;88.56
69171;BME280;56279;47.902;12.308;2023-07-20T07:32:43;95372.38;;;18.19;88.67
69171;BME280;56279;47.902;12.308;2023-07-20T07:34:44;95375.16;;;18.23;88.25
69171;BME280;56279;47.902;12.308;2023-07-20T07:36:47;95380.31;;;18.28;88.42
69171;BME280;56279;47.902;12.308;2023-07-20T07:38:49;95371.59;;;18.39;88.07
69171;BME280;56279;47.902;12.308;2023-07-20T07:40:50;95370.94;;;18.51;87.49
69171;BME280;56279;47.902;12.308;2023-07-20T07:42:51;95367.53;;;18.62;86.78
69171;BME280;56279;47.902;12.308;2023-07-20T07:44:53;95366.44;;;18.84;86.32
69171;BME280;56279;47.902;12.308;2023-07-20T07:46:54;95361.84;;;19.05;85.73
69171;BME280;56279;47.902;12.308;2023-07-20T07:48:55;95361.69;;;19.22;84.53
69171;BME280;56279;47.902;12.308;2023-07-20T07:50:57;95368.47;;;19.41;84.22
69171;BME280;56279;47.902;12.308;2023-07-20T07:52:58;95359.91;;;19.59;83.61
69171;BME280;56279;47.902;12.308;2023-07-20T07:55:00;95352.91;;;19.79;83.09
69171;BME280;56279;47.902;12.308;2023-07-20T07:57:01;95365.63;;;19.94;82.37
69171;BME280;56279;47.902;12.308;2023-07-20T07:59:02;95362.09;;;20.02;81.65
69171;BME280;56279;47.902;12.308;2023-07-20T08:01:04;95366.31;;;20.03;82.06
69171;BME280;56279;47.902;12.308;2023-07-20T08:03:08;95357.81;;;20.01;81.56
69171;BME280;56279;47.902;12.308;2023-07-20T08:05:09;95352.81;;;20.12;80.86
69171;BME280;56279;47.902;12.308;2023-07-20T08:07:10;95360.97;;;20.27;80.78
69171;BME280;56279;47.902;12.308;2023-07-20T08:09:12;95357.50;;;20.39;79.82
69171;BME280;56279;47.902;12.308;2023-07-20T08:11:13;95361.19;;;20.46;79.80
69171;BME280;56279;47.902;12.308;2023-07-20T08:13:16;95364.53;;;20.43;79.46
69171;BME280;56279;47.902;12.308;2023-07-20T08:15:17;95363.31;;;20.41;78.60
69171;BME280;56279;47.902;12.308;2023-07-20T08:17:18;95366.06;;;20.44;79.10
69171;BME280;56279;47.902;12.308;2023-07-20T08:19:20;95367.31;;;20.47;78.41
69171;BME280;56279;47.902;12.308;2023-07-20T08:21:21;95372.13;;;20.41;77.89
69171;BME280;56279;47.902;12.308;2023-07-20T08:23:23;95373.16;;;20.37;78.26
69171;BME280;56279;47.902;12.308;2023-07-20T08:25:24;95368.34;;;20.30;78.30
69171;BME280;56279;47.902;12.308;2023-07-20T08:27:26;95367.00;;;20.24;78.89
69171;BME280;56279;47.902;12.308;2023-07-20T08:29:27;95361.63;;;20.24;78.91
69171;BME280;56279;47.902;12.308;2023-07-20T08:31:28;95356.41;;;20.28;78.61
69171;BME280;56279;47.902;12.308;2023-07-20T08:33:29;95357.38;;;20.35;79.09
69171;BME280;56279;47.902;12.308;2023-07-20T08:35:34;95361.41;;;20.41;78.48
69171;BME280;56279;47.902;12.308;2023-07-20T08:37:35;95365.63;;;20.42;77.42
69171;BME280;56279;47.902;12.308;2023-07-20T08:39:37;95370.47;;;20.37;77.02
69171;BME280;56279;47.902;12.308;2023-07-20T08:41:40;95370.91;;;20.27;77.06
69171;BME280;56279;47.902;12.308;2023-07-20T08:43:43;95371.75;;;20.19;77.34
69171;BME280;56279;47.902;12.308;2023-07-20T08:45:46;95371.31;;;20.17;77.59
69171;BME280;56279;47.902;12.308;2023-07-20T08:47:50;95365.44;;;20.23;77.12
69171;BME280;56279;47.902;12.308;2023-07-20T08:49:51;95367.22;;;20.31;76.68
69171;BME280;56279;47.902;12.308;2023-07-20T08:51:56;95360.19;;;20.39;77.05
69171;BME280;56279;47.902;12.308;2023-07-20T08:53:58;95357.81;;;20.49;75.93
69171;BME280;56279;47.902;12.308;2023-07-20T08:56:00;95357.13;;;20.64;76.71
69171;BME280;56279;47.902;12.308;2023-07-20T08:58:07;95361.66;;;20.76;75.16
69171;BME280;56279;47.902;12.308;2023-07-20T09:00:10;95354.72;;;20.75;74.32
69171;BME280;56279;47.902;12.308;2023-07-20T09:02:16;95362.09;;;20.78;73.86
69171;BME280;56279;47.902;12.308;2023-07-20T09:04:18;95352.69;;;20.84;74.01
69171;BME280;56279;47.902;12.308;2023-07-20T09:06:20;95350.09;;;20.88;74.21
69171;BME280;56279;47.902;12.308;2023-07-20T09:08:21;95353.97;;;21.02;74.27
69171;BME280;56279;47.902;12.308;2023-07-20T09:10:23;95351.72;;;21.16;73.35
69171;BME280;56279;47.902;12.308;2023-07-20T09:12:25;95345.25;;;21.33;73.00
69171;BME280;56279;47.902;12.308;2023-07-20T09:14:30;95352.97;;;21.50;72.55
69171;BME280;56279;47.902;12.308;2023-07-20T09:16:33;95351.16;;;21.54;70.48
69171;BME280;56279;47.902;12.308;2023-07-20T09:18:47;95354.63;;;21.55;71.28
69171;BME280;56279;47.902;12.308;2023-07-20T09:20:49;95352.47;;;21.60;71.98
69171;BME280;56279;47.902;12.308;2023-07-20T09:22:51;95353.69;;;21.63;70.27
69171;BME280;56279;47.902;12.308;2023-07-20T09:24:53;95358.81;;;21.68;69.33
69171;BME280;56279;47.902;12.308;2023-07-20T09:26:55;95355.34;;;21.67;68.62
69171;BME280;56279;47.902;12.308;2023-07-20T09:28:56;95355.84;;;21.73;67.86
69171;BME280;56279;47.902;12.308;2023-07-20T09:30:57;95354.13;;;21.80;68.40
69171;BME280;56279;47.902;12.308;2023-07-20T09:33:00;95355.47;;;21.86;65.97
69171;BME280;56279;47.902;12.308;2023-07-20T09:35:02;95356.41;;;21.94;65.40
69171;BME280;56279;47.902;12.308;2023-07-20T09:37:03;95349.28;;;22.01;64.96
69171;BME280;56279;47.902;12.308;2023-07-20T09:39:05;95358.91;;;22.02;65.54
69171;BME280;56279;47.902;12.308;2023-07-20T09:41:06;95352.13;;;22.09;65.13
69171;BME280;56279;47.902;12.308;2023-07-20T09:43:09;95348.94;;;22.19;65.10
69171;BME280;56279;47.902;12.308;2023-07-20T09:45:10;95347.72;;;22.16;63.60
69171;BME280;56279;47.902;12.308;2023-07-20T09:47:12;95346.66;;;22.21;64.30
69171;BME280;56279;47.902;12.308;2023-07-20T09:49:13;95347.25;;;22.30;64.36
69171;BME280;56279;47.902;12.308;2023-07-20T09:51:15;95342.03;;;22.37;63.42
69171;BME280;56279;47.902;12.308;2023-07-20T09:53:18;95347.78;;;22.35;63.28
69171;BME280;56279;47.902;12.308;2023-07-20T09:55:19;95336.22;;;22.35;61.94
69171;BME280;56279;47.902;12.308;2023-07-20T09:57:22;95337.03;;;22.35;62.25
69171;BME280;56279;47.902;12.308;2023-07-20T09:59:23;95331.81;;;22.27;62.64
69171;BME280;56279;47.902;12.308;2023-07-20T10:01:26;95335.56;;;22.22;63.13
69171;BME280;56279;47.902;12.308;2023-07-20T10:03:30;95337.38;;;22.18;62.28
69171;BME280;56279;47.902;12.308;2023-07-20T10:05:34;95338.97;;;22.19;61.59
69171;BME280;56279;47.902;12.308;2023-07-20T10:07:43;95339.38;;;22.21;61.41
69171;BME280;56279;47.902;12.308;2023-07-20T10:09:45;95341.44;;;22.28;61.00
69171;BME280;56279;47.902;12.308;2023-07-20T10:11:50;95343.66;;;22.41;60.26
69171;BME280;56279;47.902;12.308;2023-07-20T10:13:53;95342.34;;;22.51;60.62
69171;BME280;56279;47.902;12.308;2023-07-20T10:16:03;95332.53;;;22.58;60.30
69171;BME280;56279;47.902;12.308;2023-07-20T10:20:41;95333.03;;;22.64;60.78
69171;BME280;56279;47.902;12.308;2023-07-20T10:22:44;95331.66;;;22.70;60.61
69171;BME280;56279;47.902;12.308;2023-07-20T10:24:46;95329.09;;;22.77;60.11
69171;BME280;56279;47.902;12.308;2023-07-20T10:26:49;95324.66;;;22.85;60.33
69171;BME280;56279;47.902;12.308;2023-07-20T10:28:50;95321.66;;;22.90;60.26
69171;BME280;56279;47.902;12.308;2023-07-20T10:30:52;95318.19;;;22.89;59.63
69171;BME280;56279;47.902;12.308;2023-07-20T10:32:54;95324.00;;;22.91;59.23
69171;BME280;56279;47.902;12.308;2023-07-20T10:34:56;95333.84;;;22.84;59.46
69171;BME280;56279;47.902;12.308;2023-07-20T10:36:57;95330.31;;;22.80;59.77
69171;BME280;56279;47.902;12.308;2023-07-20T10:38:58;95325.81;;;22.87;60.31
69171;BME280;56279;47.902;12.308;2023-07-20T10:41:00;95338.72;;;22.97;59.39
69171;BME280;56279;47.902;12.308;2023-07-20T10:43:10;95325.81;;;23.06;59.20
69171;BME280;56279;47.902;12.308;2023-07-20T10:45:11;95316.41;;;23.16;59.24
69171;BME280;56279;47.902;12.308;2023-07-20T10:47:13;95322.00;;;23.26;58.17
69171;BME280;56279;47.902;12.308;2023-07-20T10:49:14;95321.91;;;23.42;57.09
69171;BME280;56279;47.902;12.308;2023-07-20T10:51:21;95312.16;;;23.57;57.13
69171;BME280;56279;47.902;12.308;2023-07-20T10:53:24;95304.72;;;23.50;56.45